createdAt,value
2024-04-21T00:00:57.048Z,1.70
2024-04-21T00:03:47.278Z,1.60
2024-04-21T00:06:37.269Z,1.90
2024-04-21T00:09:27.063Z,5.60
2024-04-21T00:12:17.142Z,3.90
2024-04-21T00:15:09.114Z,3.00
2024-04-21T00:17:59.013Z,3.00
2024-04-21T00:20:48.952Z,4.20
2024-04-21T00:23:39.589Z,3.50
2024-04-21T00:26:29.635Z,1.70
2024-04-21T00:29:19.502Z,3.70
2024-04-21T00:32:10.011Z,3.60
2024-04-21T00:35:00.759Z,1.60
2024-04-21T00:37:50.628Z,4.00
2024-04-21T00:40:40.441Z,2.70
2024-04-21T00:43:30.518Z,2.10
2024-04-21T00:46:21.484Z,2.80
2024-04-21T00:49:12.132Z,2.60
2024-04-21T00:52:02.207Z,3.80
2024-04-21T00:54:52.258Z,5.80
2024-04-21T00:57:42.729Z,7.00
2024-04-21T01:00:32.599Z,6.60
2024-04-21T01:03:22.484Z,3.60
2024-04-21T01:06:12.341Z,5.10
2024-04-21T01:09:03.229Z,4.20
2024-04-21T01:11:53.147Z,5.20
2024-04-21T01:14:43.656Z,5.70
2024-04-21T01:17:33.596Z,5.40
2024-04-21T01:20:23.663Z,3.50
2024-04-21T01:23:19.750Z,4.90
2024-04-21T01:26:09.645Z,6.00
2024-04-21T01:28:59.487Z,9.60
2024-04-21T01:31:49.311Z,5.20
2024-04-21T01:34:39.140Z,4.90
2024-04-21T01:37:29.407Z,5.60
2024-04-21T01:40:20.351Z,6.40
2024-04-21T01:43:10.222Z,7.80
2024-04-21T01:46:00.166Z,6.30
2024-04-21T01:48:51.062Z,5.80
2024-04-21T01:51:40.941Z,7.10
2024-04-21T01:54:30.846Z,13.10
2024-04-21T01:57:20.678Z,7.30
2024-04-21T02:00:12.445Z,7.30
2024-04-21T02:03:02.227Z,11.20
2024-04-21T02:05:55.114Z,7.80
2024-04-21T02:08:44.917Z,8.00
2024-04-21T02:11:34.860Z,8.70
2024-04-21T02:14:24.777Z,8.20
2024-04-21T02:17:16.801Z,7.00
2024-04-21T02:20:08.956Z,7.70
2024-04-21T02:22:58.760Z,7.90
2024-04-21T02:25:48.611Z,9.90
2024-04-21T02:28:38.451Z,10.60
2024-04-21T02:31:28.889Z,6.20
2024-04-21T02:34:18.915Z,10.10
2024-04-21T02:37:10.026Z,7.90
2024-04-21T02:39:59.881Z,11.20
2024-04-21T02:42:49.826Z,10.90
2024-04-21T02:45:39.624Z,11.00
2024-04-21T02:48:30.568Z,11.00
2024-04-21T02:51:20.745Z,9.40
2024-04-21T02:54:11.689Z,9.90
2024-04-21T02:57:01.463Z,11.00
2024-04-21T02:59:51.793Z,9.80
2024-04-21T03:02:41.656Z,10.60
2024-04-21T03:05:33.742Z,8.70
2024-04-21T03:08:23.568Z,8.00
2024-04-21T03:11:13.464Z,6.20
2024-04-21T03:14:03.559Z,7.30
2024-04-21T03:16:53.371Z,9.30
2024-04-21T03:19:43.197Z,8.00
2024-04-21T03:22:33.043Z,6.80
2024-04-21T03:25:22.883Z,10.10
2024-04-21T03:28:12.825Z,9.30
2024-04-21T03:31:03.272Z,10.00
2024-04-21T03:33:54.290Z,9.40
2024-04-21T03:36:44.135Z,9.00
2024-04-21T03:39:34.006Z,9.30
2024-04-21T03:42:23.983Z,8.20
2024-04-21T03:45:13.768Z,7.90
2024-04-21T03:48:03.657Z,7.70
2024-04-21T03:50:53.606Z,7.40
2024-04-21T03:53:43.443Z,7.90
2024-04-21T03:56:33.274Z,9.00
2024-04-21T03:59:23.240Z,9.50
2024-04-21T04:02:13.115Z,8.60
2024-04-21T04:05:03.018Z,12.10
2024-04-21T04:07:53.900Z,6.80
2024-04-21T04:10:46.391Z,10.10
2024-04-21T04:13:36.269Z,6.50
2024-04-21T04:16:26.174Z,10.70
2024-04-21T04:19:16.429Z,7.80
2024-04-21T04:22:06.911Z,8.90
2024-04-21T04:24:56.868Z,5.50
2024-04-21T04:27:47.284Z,6.00
2024-04-21T04:30:38.491Z,6.50
2024-04-21T04:33:28.495Z,6.30
2024-04-21T04:36:18.578Z,5.00
2024-04-21T04:39:10.027Z,5.40
2024-04-21T04:41:59.829Z,6.70
2024-04-21T04:44:49.693Z,8.60
2024-04-21T04:47:41.766Z,8.00
2024-04-21T04:50:31.801Z,8.20
2024-04-21T04:53:21.676Z,6.10
2024-04-21T04:56:11.575Z,9.50
2024-04-21T04:59:03.985Z,6.00
2024-04-21T05:01:55.143Z,7.10
2024-04-21T05:04:45.216Z,7.50
2024-04-21T05:07:35.661Z,5.60
2024-04-21T05:10:26.670Z,6.80
2024-04-21T05:13:16.783Z,4.30
2024-04-21T05:16:07.813Z,5.70
2024-04-21T05:18:57.698Z,6.60
2024-04-21T05:21:47.901Z,8.30
2024-04-21T05:24:37.786Z,5.70
2024-04-21T05:27:27.632Z,4.30
2024-04-21T05:30:17.773Z,6.90
2024-04-21T05:33:09.449Z,6.20
2024-04-21T05:35:59.417Z,5.10
2024-04-21T05:38:49.329Z,7.70
2024-04-21T05:41:42.414Z,6.30
2024-04-21T05:44:32.443Z,21.00
2024-04-21T05:47:22.327Z,9.00
2024-04-21T05:50:12.417Z,8.60
2024-04-21T05:53:02.273Z,5.40
2024-04-21T05:55:52.212Z,6.60
2024-04-21T05:58:42.101Z,3.30
2024-04-21T06:01:32.121Z,5.90
2024-04-21T06:04:22.218Z,10.10
2024-04-21T06:07:12.301Z,7.20
2024-04-21T06:10:02.443Z,27.80
2024-04-21T06:12:54.422Z,17.20
2024-04-21T06:15:44.875Z,44.50
2024-04-21T06:18:34.842Z,50.60
2024-04-21T06:21:24.919Z,75.30
2024-04-21T06:24:15.139Z,17.60
2024-04-21T06:27:05.349Z,10.40
2024-04-21T06:29:57.516Z,11.10
2024-04-21T06:32:47.465Z,12.30
2024-04-21T06:35:38.711Z,7.70
2024-04-21T06:38:31.460Z,6.50
2024-04-21T06:41:21.500Z,11.30
2024-04-21T06:44:11.668Z,14.70
2024-04-21T06:47:01.585Z,12.70
2024-04-21T06:49:51.453Z,11.50
2024-04-21T06:52:41.337Z,11.50
2024-04-21T06:58:25.460Z,16.70
2024-04-21T07:01:15.897Z,14.40
2024-04-21T07:04:07.119Z,14.80
2024-04-21T07:06:57.128Z,20.50
2024-04-21T07:09:47.015Z,19.30
2024-04-21T07:12:37.827Z,18.30
2024-04-21T07:15:28.741Z,12.50
2024-04-21T07:18:19.293Z,27.80
2024-04-21T07:21:09.442Z,12.40
2024-04-21T07:24:01.415Z,13.80
2024-04-21T07:26:51.345Z,15.60
2024-04-21T07:29:42.169Z,16.10
2024-04-21T07:32:32.259Z,11.60
2024-04-21T07:35:22.706Z,11.50
2024-04-21T07:38:12.603Z,12.60
2024-04-21T07:41:02.543Z,10.60
2024-04-21T07:43:52.407Z,11.10
2024-04-21T07:46:42.324Z,8.30
2024-04-21T07:49:32.504Z,8.60
2024-04-21T07:52:22.441Z,8.60
2024-04-21T07:55:12.857Z,9.40
2024-04-21T07:58:03.489Z,0.70
2024-04-21T08:00:54.279Z,9.40
2024-04-21T08:03:45.327Z,13.00
2024-04-21T08:06:35.993Z,10.90
2024-04-21T08:09:30.354Z,11.70
2024-04-21T08:12:21.487Z,8.80
2024-04-21T08:15:11.644Z,9.70
2024-04-21T08:18:04.092Z,7.90
2024-04-21T08:20:54.850Z,8.70
2024-04-21T08:23:45.120Z,11.90
2024-04-21T08:26:35.435Z,15.50
2024-04-21T08:29:25.365Z,11.80
2024-04-21T08:32:15.296Z,6.90
2024-04-21T08:35:06.031Z,7.40
2024-04-21T08:37:55.892Z,12.00
2024-04-21T08:40:46.500Z,10.40
2024-04-21T08:43:37.373Z,10.10
2024-04-21T08:46:28.479Z,5.50
2024-04-21T08:49:18.923Z,10.60
2024-04-21T08:52:11.129Z,6.50
2024-04-21T08:55:01.165Z,14.00
2024-04-21T08:57:51.203Z,8.10
2024-04-21T09:00:41.169Z,11.70
2024-04-21T09:03:31.197Z,11.80
2024-04-21T09:06:23.200Z,5.00
2024-04-21T09:09:13.031Z,7.70
2024-04-21T09:12:05.702Z,10.80
2024-04-21T09:14:55.754Z,8.30
2024-04-21T09:17:46.226Z,7.90
2024-04-21T09:20:37.818Z,7.20
2024-04-21T09:23:28.099Z,7.00
2024-04-21T09:26:22.188Z,8.90
2024-04-21T09:29:14.903Z,7.40
2024-04-21T09:32:07.251Z,8.80
2024-04-21T09:35:00.308Z,8.50
2024-04-21T09:37:50.681Z,8.50
2024-04-21T09:40:40.613Z,14.00
2024-04-21T09:43:31.965Z,8.70
2024-04-21T09:46:22.122Z,7.70
2024-04-21T09:49:12.140Z,7.70
2024-04-21T09:52:02.713Z,8.90
2024-04-21T09:54:53.273Z,7.50
2024-04-21T09:57:43.569Z,7.20
2024-04-21T10:00:34.393Z,7.00
2024-04-21T10:03:24.432Z,3.80
2024-04-21T10:06:16.686Z,4.80
2024-04-21T10:09:07.790Z,8.20
2024-04-21T10:11:57.847Z,5.20
2024-04-21T10:14:48.946Z,7.70
2024-04-21T10:17:39.036Z,9.00
2024-04-21T10:20:34.418Z,6.20
2024-04-21T10:23:24.368Z,7.90
2024-04-21T10:26:14.376Z,6.90
2024-04-21T10:29:13.223Z,6.30
2024-04-21T10:32:17.893Z,8.30
2024-04-21T10:35:08.807Z,5.20
2024-04-21T10:37:59.266Z,6.00
2024-04-21T10:40:49.821Z,4.70
2024-04-21T10:43:39.708Z,6.00
2024-04-21T10:46:32.608Z,6.70
2024-04-21T10:49:22.751Z,3.60
2024-04-21T10:52:13.273Z,4.90
2024-04-21T10:55:03.684Z,4.90
2024-04-21T10:57:53.711Z,7.50
2024-04-21T11:00:44.597Z,5.50
2024-04-21T11:03:36.243Z,6.80
2024-04-21T11:06:28.869Z,8.40
2024-04-21T11:09:19.027Z,7.70
2024-04-21T11:12:10.179Z,6.50
2024-04-21T11:15:03.243Z,4.30
2024-04-21T11:18:01.046Z,6.30
2024-04-21T11:20:51.078Z,7.40
2024-04-21T11:23:41.413Z,3.30
2024-04-21T11:26:31.531Z,5.40
2024-04-21T11:29:22.072Z,6.80
2024-04-21T11:32:14.919Z,3.80
2024-04-21T11:35:06.773Z,7.10
2024-04-21T11:37:56.846Z,8.80
2024-04-21T11:40:46.914Z,5.70
2024-04-21T11:43:36.872Z,5.40
2024-04-21T11:46:27.080Z,6.90
2024-04-21T11:49:17.288Z,4.90
2024-04-21T11:52:08.111Z,6.70
2024-04-21T11:54:58.043Z,6.90
2024-04-21T11:57:48.063Z,7.50
2024-04-21T12:00:40.438Z,3.60
2024-04-21T12:06:19.034Z,5.00
2024-04-21T12:09:09.607Z,7.40
2024-04-21T12:11:59.578Z,9.30
2024-04-21T12:14:49.461Z,7.10
2024-04-21T12:17:39.420Z,5.70
2024-04-21T12:20:29.615Z,6.50
2024-04-21T12:23:20.162Z,4.50
2024-04-21T12:26:10.078Z,12.80
2024-04-21T12:29:00.318Z,8.00
2024-04-21T12:31:51.245Z,8.90
2024-04-21T12:34:41.147Z,6.30
2024-04-21T12:37:31.116Z,7.30
2024-04-21T12:40:21.170Z,7.50
2024-04-21T12:43:11.708Z,7.40
2024-04-21T12:46:01.801Z,5.50
2024-04-21T12:48:51.996Z,7.20
2024-04-21T12:51:41.866Z,7.40
2024-04-21T12:54:34.061Z,3.60
2024-04-21T12:57:23.972Z,2.80
2024-04-21T13:00:15.729Z,3.70
2024-04-21T13:03:06.729Z,6.50
2024-04-21T13:05:56.790Z,5.60
2024-04-21T13:08:46.810Z,6.50
2024-04-21T13:11:36.657Z,3.90
2024-04-21T13:14:26.559Z,4.20
2024-04-21T13:17:19.440Z,4.40
2024-04-21T13:20:10.962Z,7.00
2024-04-21T13:23:00.900Z,3.30
2024-04-21T13:25:50.902Z,2.20
2024-04-21T13:28:40.887Z,1.40
2024-04-21T13:31:31.108Z,2.40
2024-04-21T13:34:22.396Z,3.20
2024-04-21T13:37:12.418Z,3.50
2024-04-21T13:40:02.408Z,2.40
2024-04-21T13:42:52.479Z,3.70
2024-04-21T13:45:42.818Z,1.40
2024-04-21T13:48:36.409Z,3.50
2024-04-21T13:51:31.816Z,4.20
2024-04-21T13:54:23.381Z,1.10
2024-04-21T13:57:13.268Z,0.90
2024-04-21T14:00:03.297Z,0.70
2024-04-21T14:02:53.265Z,5.50
2024-04-21T14:05:44.212Z,0.90
2024-04-21T14:08:34.091Z,1.40
2024-04-21T14:11:24.150Z,0.80
2024-04-21T14:14:14.319Z,1.80
2024-04-21T14:17:04.621Z,2.10
2024-04-21T14:19:54.539Z,1.50
2024-04-21T14:22:44.923Z,1.20
2024-04-21T14:25:34.852Z,1.40
2024-04-21T14:28:24.983Z,1.50
2024-04-21T14:31:15.166Z,1.30
2024-04-21T14:34:05.626Z,5.30
2024-04-21T14:36:55.734Z,1.10
2024-04-21T14:39:45.720Z,1.20
2024-04-21T14:42:35.766Z,2.80
2024-04-21T14:45:26.073Z,1.80
2024-04-21T14:48:16.099Z,1.10
2024-04-21T14:51:08.252Z,1.90
2024-04-21T14:53:58.180Z,2.90
2024-04-21T14:56:48.062Z,1.00
2024-04-21T14:59:38.036Z,1.10
2024-04-21T15:02:29.150Z,1.80
2024-04-21T15:05:19.150Z,2.50
2024-04-21T15:08:10.280Z,2.50
2024-04-21T15:11:01.692Z,3.30
2024-04-21T15:13:52.128Z,1.80
2024-04-21T15:16:45.603Z,2.00
2024-04-21T15:19:36.371Z,2.30
2024-04-21T15:22:28.778Z,3.00
2024-04-21T15:25:19.675Z,1.80
2024-04-21T15:28:10.083Z,2.70
2024-04-21T15:31:00.124Z,4.90
2024-04-21T15:33:50.328Z,3.00
2024-04-21T15:36:40.665Z,3.90
2024-04-21T15:39:30.645Z,2.80
2024-04-21T15:42:20.652Z,8.50
2024-04-21T15:45:10.815Z,4.70
2024-04-21T15:48:00.752Z,3.30
2024-04-21T15:50:51.320Z,2.90
2024-04-21T15:53:41.262Z,1.50
2024-04-21T15:56:31.142Z,2.90
2024-04-21T15:59:22.167Z,2.50
2024-04-21T16:02:12.112Z,3.00
2024-04-21T16:05:02.114Z,3.20
2024-04-21T16:07:52.456Z,2.70
2024-04-21T16:10:42.679Z,3.30
2024-04-21T16:13:32.775Z,2.20
2024-04-21T16:16:22.862Z,4.90
2024-04-21T16:19:13.590Z,4.40
2024-04-21T16:22:04.168Z,2.90
2024-04-21T16:24:56.273Z,3.80
2024-04-21T16:27:46.286Z,4.50
2024-04-21T16:30:36.762Z,7.30
2024-04-21T16:33:28.862Z,3.00
2024-04-21T16:36:21.141Z,4.00
2024-04-21T16:39:13.032Z,3.70
2024-04-21T16:42:04.571Z,6.10
2024-04-21T16:44:56.174Z,4.70
2024-04-21T16:47:48.286Z,6.40
2024-04-21T16:50:40.087Z,7.40
2024-04-21T16:53:31.948Z,5.40
2024-04-21T16:56:23.990Z,5.60
2024-04-21T16:59:16.046Z,6.40
2024-04-21T17:02:08.049Z,6.00
2024-04-21T17:04:59.876Z,5.80
2024-04-21T17:07:53.888Z,6.10
2024-04-21T17:10:46.378Z,13.80
2024-04-21T17:13:36.440Z,9.50
2024-04-21T17:16:26.480Z,7.10
2024-04-21T17:19:16.563Z,6.40
2024-04-21T17:22:06.895Z,7.50
2024-04-21T17:24:59.148Z,7.10
2024-04-21T17:27:49.913Z,7.30
2024-04-21T17:30:40.133Z,6.20
2024-04-21T17:33:30.387Z,11.70
2024-04-21T17:36:20.497Z,11.70
2024-04-21T17:39:10.608Z,18.10
2024-04-21T17:42:00.639Z,10.00
2024-04-21T17:44:50.558Z,9.40
2024-04-21T17:47:40.532Z,9.20
2024-04-21T17:50:31.163Z,8.80
2024-04-21T17:53:21.101Z,7.40
2024-04-21T17:56:11.102Z,7.90
2024-04-21T17:59:02.091Z,10.60
2024-04-21T18:01:52.184Z,12.10
2024-04-21T18:04:42.304Z,8.90
2024-04-21T18:07:34.042Z,10.70
2024-04-21T18:10:24.241Z,11.20
2024-04-21T18:13:15.403Z,10.70
2024-04-21T18:16:06.125Z,8.80
2024-04-21T18:18:56.535Z,8.00
2024-04-21T18:21:52.286Z,9.20
2024-04-21T18:24:43.277Z,11.00
2024-04-21T18:27:33.235Z,11.20
2024-04-21T18:30:23.205Z,9.50
2024-04-21T18:33:13.255Z,8.70
2024-04-21T18:36:03.382Z,10.30
2024-04-21T18:38:53.584Z,9.10
2024-04-21T18:41:43.721Z,12.30
2024-04-21T18:44:33.647Z,11.50
2024-04-21T18:47:26.057Z,11.30
2024-04-21T18:50:18.116Z,10.80
2024-04-21T18:53:08.124Z,9.00
2024-04-21T18:56:02.259Z,7.90
2024-04-21T18:58:52.209Z,8.60
2024-04-21T19:04:31.712Z,9.50
2024-04-21T19:07:22.011Z,8.70
2024-04-21T19:10:14.015Z,9.70
2024-04-21T19:13:05.352Z,11.70
2024-04-21T19:15:57.803Z,10.40
2024-04-21T19:18:51.071Z,9.00
2024-04-21T19:21:42.294Z,8.90
2024-04-21T19:24:33.240Z,8.10
2024-04-21T19:27:25.159Z,8.50
2024-04-21T19:30:15.325Z,8.60
2024-04-21T19:33:06.730Z,9.00
2024-04-21T19:35:56.650Z,8.50
2024-04-21T19:38:46.599Z,12.40
2024-04-21T19:41:36.497Z,10.40
2024-04-21T19:44:26.418Z,11.00
2024-04-21T19:47:16.345Z,10.80
2024-04-21T19:50:07.976Z,8.20
2024-04-21T19:52:58.892Z,10.00
2024-04-21T19:55:48.799Z,11.10
2024-04-21T19:58:38.888Z,11.70
2024-04-21T20:01:34.084Z,10.00
2024-04-21T20:04:24.101Z,9.80
2024-04-21T20:07:16.669Z,10.90
2024-04-21T20:10:07.445Z,10.80
2024-04-21T20:12:57.528Z,9.80
2024-04-21T20:16:10.838Z,9.60
2024-04-21T20:19:00.821Z,10.00
2024-04-21T20:21:50.817Z,11.50
2024-04-21T20:24:40.774Z,10.20
2024-04-21T20:27:31.739Z,8.60
2024-04-21T20:30:24.556Z,9.30
2024-04-21T20:33:14.690Z,12.90
2024-04-21T20:36:06.844Z,12.80
2024-04-21T20:38:59.370Z,12.60
2024-04-21T20:41:52.126Z,12.30
2024-04-21T20:44:42.422Z,15.20
2024-04-21T20:47:33.578Z,10.40
2024-04-21T20:50:23.943Z,12.50
2024-04-21T20:53:13.796Z,14.00
2024-04-21T20:56:04.136Z,14.30
2024-04-21T20:58:54.103Z,15.90
2024-04-21T21:01:44.169Z,16.20
2024-04-21T21:04:34.211Z,13.30
2024-04-21T21:07:27.351Z,16.40
2024-04-21T21:10:17.725Z,10.30
2024-04-21T21:13:08.536Z,13.70
2024-04-21T21:16:00.136Z,12.20
2024-04-21T21:18:50.072Z,13.40
2024-04-21T21:21:39.949Z,13.80
2024-04-21T21:24:30.412Z,13.40
2024-04-21T21:27:20.562Z,16.00
2024-04-21T21:30:11.909Z,18.30
2024-04-21T21:33:01.945Z,25.00
2024-04-21T21:35:58.232Z,16.20
2024-04-21T21:38:48.331Z,13.20
2024-04-21T21:41:38.297Z,15.30
2024-04-21T21:44:28.430Z,12.10
2024-04-21T21:47:19.009Z,15.90
2024-04-21T21:50:09.432Z,13.40
2024-04-21T21:52:59.413Z,10.90
2024-04-21T21:55:49.398Z,11.90
2024-04-21T21:58:39.477Z,14.10
2024-04-21T22:01:32.217Z,12.40
2024-04-21T22:04:22.575Z,14.30
2024-04-21T22:07:12.531Z,13.40
2024-04-21T22:10:02.532Z,11.90
2024-04-21T22:12:52.568Z,14.50
2024-04-21T22:15:42.935Z,12.50
2024-04-21T22:18:32.843Z,14.40
2024-04-21T22:21:22.845Z,12.70
2024-04-21T22:24:12.689Z,14.10
2024-04-21T22:27:02.563Z,15.60
2024-04-21T22:29:53.142Z,14.40
2024-04-21T22:32:45.874Z,15.90
2024-04-21T22:35:35.805Z,13.70
2024-04-21T22:38:25.676Z,16.40
2024-04-21T22:41:16.544Z,13.40
2024-04-21T22:44:06.938Z,16.60
2024-04-21T22:46:56.877Z,17.80
2024-04-21T22:49:46.789Z,14.70
2024-04-21T22:52:37.023Z,16.80
2024-04-21T22:55:27.166Z,13.70
2024-04-21T22:58:18.388Z,17.30
2024-04-21T23:01:09.286Z,15.60
2024-04-21T23:03:59.216Z,14.00
2024-04-21T23:06:49.057Z,14.40
2024-04-21T23:09:38.978Z,13.20
2024-04-21T23:12:28.914Z,13.80
2024-04-21T23:15:18.836Z,15.50
2024-04-21T23:18:09.166Z,18.00
2024-04-21T23:20:59.133Z,13.00
2024-04-21T23:23:48.996Z,14.80
2024-04-21T23:26:39.853Z,18.70
2024-04-21T23:29:31.926Z,16.00
2024-04-21T23:32:21.779Z,14.90
2024-04-21T23:35:11.655Z,16.40
2024-04-21T23:38:01.921Z,13.30
2024-04-21T23:40:51.770Z,14.60
2024-04-21T23:43:43.789Z,13.90
2024-04-21T23:46:33.820Z,13.60
2024-04-21T23:49:23.774Z,12.60
2024-04-21T23:52:14.009Z,14.30
2024-04-21T23:55:04.092Z,14.50
2024-04-21T23:57:54.094Z,15.70
